sensor_id;sensor_type;location;lat;lon;timestamp;P1;durP1;ratioP1;P2;durP2;ratioP2
66667;SDS011;57205;51.438;-2.006;2023-04-24T00:00:14;19.60;;;11.65;;
66667;SDS011;57205;51.438;-2.006;2023-04-24T00:02:41;19.58;;;11.50;;
66667;SDS011;57205;51.438;-2.006;2023-04-24T00:05:11;21.33;;;11.38;;
66667;SDS011;57205;51.438;-2.006;2023-04-24T00:07:38;20.63;;;11.93;;
66667;SDS011;57205;51.438;-2.006;2023-04-24T00:10:05;20.92;;;12.90;;
66667;SDS011;57205;51.438;-2.006;2023-04-24T00:12:31;19.35;;;12.27;;
66667;SDS011;57205;51.438;-2.006;2023-04-24T00:14:56;18.27;;;11.98;;
66667;SDS011;57205;51.438;-2.006;2023-04-24T00:17:22;19.63;;;11.88;;
66667;SDS011;57205;51.438;-2.006;2023-04-24T00:19:48;23.33;;;12.00;;
66667;SDS011;57205;51.438;-2.006;2023-04-24T00:22:13;22.33;;;11.65;;
66667;SDS011;57205;51.438;-2.006;2023-04-24T00:24:39;22.42;;;11.43;;
66667;SDS011;57205;51.438;-2.006;2023-04-24T00:27:05;22.65;;;12.88;;
66667;SDS011;57205;51.438;-2.006;2023-04-24T00:29:31;20.00;;;11.70;;
66667;SDS011;57205;51.438;-2.006;2023-04-24T00:31:56;21.67;;;12.68;;
66667;SDS011;57205;51.438;-2.006;2023-04-24T00:34:22;17.90;;;11.32;;
66667;SDS011;57205;51.438;-2.006;2023-04-24T00:36:47;17.27;;;11.30;;
66667;SDS011;57205;51.438;-2.006;2023-04-24T00:39:15;19.30;;;11.80;;
66667;SDS011;57205;51.438;-2.006;2023-04-24T00:41:40;21.20;;;13.80;;
66667;SDS011;57205;51.438;-2.006;2023-04-24T00:44:07;18.92;;;11.20;;
66667;SDS011;57205;51.438;-2.006;2023-04-24T00:46:32;20.73;;;12.45;;
66667;SDS011;57205;51.438;-2.006;2023-04-24T00:48:58;21.25;;;11.43;;
66667;SDS011;57205;51.438;-2.006;2023-04-24T00:51:24;19.77;;;11.38;;
66667;SDS011;57205;51.438;-2.006;2023-04-24T00:53:50;17.27;;;10.75;;
66667;SDS011;57205;51.438;-2.006;2023-04-24T00:56:16;19.98;;;11.52;;
66667;SDS011;57205;51.438;-2.006;2023-04-24T00:58:42;18.65;;;11.15;;
66667;SDS011;57205;51.438;-2.006;2023-04-24T01:01:08;17.67;;;10.82;;
66667;SDS011;57205;51.438;-2.006;2023-04-24T01:03:34;24.05;;;11.88;;
66667;SDS011;57205;51.438;-2.006;2023-04-24T01:06:02;18.92;;;11.68;;
66667;SDS011;57205;51.438;-2.006;2023-04-24T01:08:29;17.45;;;10.52;;
66667;SDS011;57205;51.438;-2.006;2023-04-24T01:10:54;18.35;;;11.85;;
66667;SDS011;57205;51.438;-2.006;2023-04-24T01:13:22;23.65;;;12.30;;
66667;SDS011;57205;51.438;-2.006;2023-04-24T01:15:48;20.33;;;11.60;;
66667;SDS011;57205;51.438;-2.006;2023-04-24T01:18:14;19.33;;;11.43;;
66667;SDS011;57205;51.438;-2.006;2023-04-24T01:20:40;23.75;;;13.00;;
66667;SDS011;57205;51.438;-2.006;2023-04-24T01:23:07;20.35;;;11.57;;
66667;SDS011;57205;51.438;-2.006;2023-04-24T01:25:33;20.30;;;11.32;;
66667;SDS011;57205;51.438;-2.006;2023-04-24T01:27:59;18.45;;;11.35;;
66667;SDS011;57205;51.438;-2.006;2023-04-24T01:30:25;19.00;;;11.80;;
66667;SDS011;57205;51.438;-2.006;2023-04-24T01:32:52;20.85;;;11.85;;
66667;SDS011;57205;51.438;-2.006;2023-04-24T01:35:18;21.52;;;12.82;;
66667;SDS011;57205;51.438;-2.006;2023-04-24T01:37:44;19.60;;;12.48;;
66667;SDS011;57205;51.438;-2.006;2023-04-24T01:40:10;21.67;;;13.13;;
66667;SDS011;57205;51.438;-2.006;2023-04-24T01:42:36;22.75;;;12.50;;
66667;SDS011;57205;51.438;-2.006;2023-04-24T01:45:01;21.73;;;12.68;;
66667;SDS011;57205;51.438;-2.006;2023-04-24T01:47:28;22.13;;;12.68;;
66667;SDS011;57205;51.438;-2.006;2023-04-24T01:49:55;20.55;;;12.10;;
66667;SDS011;57205;51.438;-2.006;2023-04-24T01:52:21;24.92;;;12.90;;
66667;SDS011;57205;51.438;-2.006;2023-04-24T01:54:46;21.17;;;13.65;;
66667;SDS011;57205;51.438;-2.006;2023-04-24T01:57:12;20.95;;;13.10;;
66667;SDS011;57205;51.438;-2.006;2023-04-24T01:59:39;22.90;;;12.40;;
66667;SDS011;57205;51.438;-2.006;2023-04-24T02:02:04;19.92;;;12.35;;
66667;SDS011;57205;51.438;-2.006;2023-04-24T02:04:30;20.92;;;11.77;;
66667;SDS011;57205;51.438;-2.006;2023-04-24T02:06:55;19.98;;;11.35;;
66667;SDS011;57205;51.438;-2.006;2023-04-24T02:09:20;19.75;;;12.00;;
66667;SDS011;57205;51.438;-2.006;2023-04-24T02:11:46;17.88;;;11.35;;
66667;SDS011;57205;51.438;-2.006;2023-04-24T02:14:11;14.65;;;10.43;;
66667;SDS011;57205;51.438;-2.006;2023-04-24T02:16:37;16.52;;;10.57;;
66667;SDS011;57205;51.438;-2.006;2023-04-24T02:19:02;17.23;;;10.82;;
66667;SDS011;57205;51.438;-2.006;2023-04-24T02:21:28;19.80;;;11.13;;
66667;SDS011;57205;51.438;-2.006;2023-04-24T02:23:55;16.50;;;11.00;;
66667;SDS011;57205;51.438;-2.006;2023-04-24T02:26:21;16.58;;;9.98;;
66667;SDS011;57205;51.438;-2.006;2023-04-24T02:28:46;20.77;;;11.00;;
66667;SDS011;57205;51.438;-2.006;2023-04-24T02:31:12;17.05;;;11.32;;
66667;SDS011;57205;51.438;-2.006;2023-04-24T02:33:37;19.50;;;11.85;;
66667;SDS011;57205;51.438;-2.006;2023-04-24T02:36:02;17.55;;;10.93;;
66667;SDS011;57205;51.438;-2.006;2023-04-24T02:38:28;19.00;;;10.57;;
66667;SDS011;57205;51.438;-2.006;2023-04-24T02:40:54;15.73;;;9.90;;
66667;SDS011;57205;51.438;-2.006;2023-04-24T02:43:20;17.08;;;10.45;;
66667;SDS011;57205;51.438;-2.006;2023-04-24T02:45:46;16.88;;;10.50;;
66667;SDS011;57205;51.438;-2.006;2023-04-24T02:48:11;15.10;;;10.00;;
66667;SDS011;57205;51.438;-2.006;2023-04-24T02:50:37;20.10;;;10.20;;
66667;SDS011;57205;51.438;-2.006;2023-04-24T02:53:02;18.30;;;10.55;;
66667;SDS011;57205;51.438;-2.006;2023-04-24T02:55:28;16.30;;;10.43;;
66667;SDS011;57205;51.438;-2.006;2023-04-24T02:57:53;16.42;;;9.85;;
66667;SDS011;57205;51.438;-2.006;2023-04-24T03:00:19;19.02;;;11.02;;
66667;SDS011;57205;51.438;-2.006;2023-04-24T03:02:44;19.73;;;11.02;;
66667;SDS011;57205;51.438;-2.006;2023-04-24T03:05:10;20.48;;;10.77;;
66667;SDS011;57205;51.438;-2.006;2023-04-24T03:07:37;18.90;;;11.73;;
66667;SDS011;57205;51.438;-2.006;2023-04-24T03:10:02;21.17;;;10.77;;
66667;SDS011;57205;51.438;-2.006;2023-04-24T03:12:29;19.42;;;11.63;;
66667;SDS011;57205;51.438;-2.006;2023-04-24T03:14:55;20.52;;;12.45;;
66667;SDS011;57205;51.438;-2.006;2023-04-24T03:17:20;18.40;;;11.35;;
66667;SDS011;57205;51.438;-2.006;2023-04-24T03:19:46;16.05;;;9.77;;
66667;SDS011;57205;51.438;-2.006;2023-04-24T03:22:11;17.38;;;10.18;;
66667;SDS011;57205;51.438;-2.006;2023-04-24T03:24:37;17.88;;;10.50;;
66667;SDS011;57205;51.438;-2.006;2023-04-24T03:27:02;17.17;;;11.20;;
66667;SDS011;57205;51.438;-2.006;2023-04-24T03:29:28;21.98;;;11.88;;
66667;SDS011;57205;51.438;-2.006;2023-04-24T03:31:53;19.23;;;10.93;;
66667;SDS011;57205;51.438;-2.006;2023-04-24T03:34:18;17.55;;;11.27;;
66667;SDS011;57205;51.438;-2.006;2023-04-24T03:36:44;20.83;;;13.27;;
66667;SDS011;57205;51.438;-2.006;2023-04-24T03:39:12;19.45;;;12.23;;
66667;SDS011;57205;51.438;-2.006;2023-04-24T03:41:37;19.88;;;12.00;;
66667;SDS011;57205;51.438;-2.006;2023-04-24T03:44:03;20.92;;;12.13;;
66667;SDS011;57205;51.438;-2.006;2023-04-24T03:46:28;23.35;;;12.73;;
66667;SDS011;57205;51.438;-2.006;2023-04-24T03:48:54;19.10;;;11.43;;
66667;SDS011;57205;51.438;-2.006;2023-04-24T03:51:20;19.85;;;11.95;;
66667;SDS011;57205;51.438;-2.006;2023-04-24T03:53:45;23.08;;;11.90;;
66667;SDS011;57205;51.438;-2.006;2023-04-24T03:56:11;20.35;;;11.38;;
66667;SDS011;57205;51.438;-2.006;2023-04-24T03:58:36;18.50;;;11.80;;
66667;SDS011;57205;51.438;-2.006;2023-04-24T04:01:02;19.23;;;11.82;;
66667;SDS011;57205;51.438;-2.006;2023-04-24T04:03:27;19.23;;;11.45;;
66667;SDS011;57205;51.438;-2.006;2023-04-24T04:05:53;19.23;;;11.43;;
66667;SDS011;57205;51.438;-2.006;2023-04-24T04:08:19;17.80;;;12.02;;
66667;SDS011;57205;51.438;-2.006;2023-04-24T04:10:44;19.13;;;10.95;;
66667;SDS011;57205;51.438;-2.006;2023-04-24T04:13:10;19.23;;;9.98;;
66667;SDS011;57205;51.438;-2.006;2023-04-24T04:15:35;22.00;;;12.02;;
66667;SDS011;57205;51.438;-2.006;2023-04-24T04:18:01;18.75;;;11.45;;
66667;SDS011;57205;51.438;-2.006;2023-04-24T04:20:26;18.80;;;11.07;;
66667;SDS011;57205;51.438;-2.006;2023-04-24T04:22:52;17.95;;;10.43;;
66667;SDS011;57205;51.438;-2.006;2023-04-24T04:25:17;18.08;;;10.90;;
66667;SDS011;57205;51.438;-2.006;2023-04-24T04:27:44;19.88;;;10.95;;
66667;SDS011;57205;51.438;-2.006;2023-04-24T04:30:12;20.63;;;11.07;;
66667;SDS011;57205;51.438;-2.006;2023-04-24T04:32:38;18.90;;;11.07;;
66667;SDS011;57205;51.438;-2.006;2023-04-24T04:35:04;17.63;;;9.80;;
66667;SDS011;57205;51.438;-2.006;2023-04-24T04:37:30;16.70;;;10.05;;
66667;SDS011;57205;51.438;-2.006;2023-04-24T04:39:56;15.63;;;10.55;;
66667;SDS011;57205;51.438;-2.006;2023-04-24T04:42:25;15.52;;;9.27;;
66667;SDS011;57205;51.438;-2.006;2023-04-24T04:44:52;15.90;;;9.70;;
66667;SDS011;57205;51.438;-2.006;2023-04-24T04:47:17;17.50;;;10.98;;
66667;SDS011;57205;51.438;-2.006;2023-04-24T04:49:46;20.48;;;12.15;;
66667;SDS011;57205;51.438;-2.006;2023-04-24T04:52:13;18.63;;;10.73;;
66667;SDS011;57205;51.438;-2.006;2023-04-24T04:54:38;17.02;;;10.15;;
66667;SDS011;57205;51.438;-2.006;2023-04-24T04:57:03;15.52;;;9.20;;
66667;SDS011;57205;51.438;-2.006;2023-04-24T04:59:29;16.55;;;10.70;;
66667;SDS011;57205;51.438;-2.006;2023-04-24T05:01:54;18.52;;;9.57;;
66667;SDS011;57205;51.438;-2.006;2023-04-24T05:04:20;17.17;;;9.13;;
66667;SDS011;57205;51.438;-2.006;2023-04-24T05:06:45;15.13;;;8.73;;
66667;SDS011;57205;51.438;-2.006;2023-04-24T05:09:12;19.15;;;10.38;;
66667;SDS011;57205;51.438;-2.006;2023-04-24T05:11:37;17.70;;;10.23;;
66667;SDS011;57205;51.438;-2.006;2023-04-24T05:14:03;18.13;;;9.63;;
66667;SDS011;57205;51.438;-2.006;2023-04-24T05:16:28;16.02;;;10.48;;
66667;SDS011;57205;51.438;-2.006;2023-04-24T05:18:54;27.52;;;12.38;;
66667;SDS011;57205;51.438;-2.006;2023-04-24T05:21:19;18.20;;;9.25;;
66667;SDS011;57205;51.438;-2.006;2023-04-24T05:23:45;14.05;;;8.95;;
66667;SDS011;57205;51.438;-2.006;2023-04-24T05:26:10;13.30;;;8.85;;
66667;SDS011;57205;51.438;-2.006;2023-04-24T05:28:36;14.10;;;8.95;;
66667;SDS011;57205;51.438;-2.006;2023-04-24T05:31:02;15.95;;;8.77;;
66667;SDS011;57205;51.438;-2.006;2023-04-24T05:33:28;13.95;;;8.02;;
66667;SDS011;57205;51.438;-2.006;2023-04-24T05:35:53;14.55;;;8.25;;
66667;SDS011;57205;51.438;-2.006;2023-04-24T05:38:19;12.75;;;8.27;;
66667;SDS011;57205;51.438;-2.006;2023-04-24T05:40:47;12.20;;;7.10;;
66667;SDS011;57205;51.438;-2.006;2023-04-24T05:43:13;10.80;;;6.85;;
66667;SDS011;57205;51.438;-2.006;2023-04-24T05:45:38;13.20;;;6.78;;
66667;SDS011;57205;51.438;-2.006;2023-04-24T05:48:04;10.18;;;6.88;;
66667;SDS011;57205;51.438;-2.006;2023-04-24T05:50:30;9.85;;;5.75;;
66667;SDS011;57205;51.438;-2.006;2023-04-24T05:52:56;11.25;;;6.45;;
66667;SDS011;57205;51.438;-2.006;2023-04-24T05:55:26;10.88;;;6.03;;
66667;SDS011;57205;51.438;-2.006;2023-04-24T05:57:52;10.73;;;6.22;;
66667;SDS011;57205;51.438;-2.006;2023-04-24T06:00:17;10.52;;;6.53;;
66667;SDS011;57205;51.438;-2.006;2023-04-24T06:02:44;10.48;;;6.75;;
66667;SDS011;57205;51.438;-2.006;2023-04-24T06:05:10;10.73;;;7.05;;
66667;SDS011;57205;51.438;-2.006;2023-04-24T06:07:36;10.27;;;6.38;;
66667;SDS011;57205;51.438;-2.006;2023-04-24T06:10:01;9.43;;;6.22;;
66667;SDS011;57205;51.438;-2.006;2023-04-24T06:12:27;8.52;;;5.70;;
66667;SDS011;57205;51.438;-2.006;2023-04-24T06:14:52;9.35;;;5.97;;
66667;SDS011;57205;51.438;-2.006;2023-04-24T06:17:19;13.70;;;8.73;;
66667;SDS011;57205;51.438;-2.006;2023-04-24T06:19:44;11.68;;;5.90;;
66667;SDS011;57205;51.438;-2.006;2023-04-24T06:22:10;9.05;;;5.72;;
66667;SDS011;57205;51.438;-2.006;2023-04-24T06:24:35;12.57;;;5.88;;
66667;SDS011;57205;51.438;-2.006;2023-04-24T06:27:01;11.45;;;6.18;;
66667;SDS011;57205;51.438;-2.006;2023-04-24T06:29:26;8.70;;;5.13;;
66667;SDS011;57205;51.438;-2.006;2023-04-24T06:31:52;8.27;;;5.60;;
66667;SDS011;57205;51.438;-2.006;2023-04-24T06:34:18;9.68;;;6.03;;
66667;SDS011;57205;51.438;-2.006;2023-04-24T06:36:43;7.78;;;5.72;;
66667;SDS011;57205;51.438;-2.006;2023-04-24T06:39:09;8.80;;;5.30;;
66667;SDS011;57205;51.438;-2.006;2023-04-24T06:41:35;8.20;;;5.30;;
66667;SDS011;57205;51.438;-2.006;2023-04-24T06:44:00;8.43;;;5.35;;
66667;SDS011;57205;51.438;-2.006;2023-04-24T06:46:26;9.52;;;5.80;;
66667;SDS011;57205;51.438;-2.006;2023-04-24T06:48:53;9.68;;;5.40;;
66667;SDS011;57205;51.438;-2.006;2023-04-24T06:51:25;9.23;;;5.13;;
66667;SDS011;57205;51.438;-2.006;2023-04-24T06:53:52;8.27;;;5.22;;
66667;SDS011;57205;51.438;-2.006;2023-04-24T06:56:18;9.85;;;5.70;;
66667;SDS011;57205;51.438;-2.006;2023-04-24T06:58:45;8.63;;;5.90;;
66667;SDS011;57205;51.438;-2.006;2023-04-24T07:01:10;9.75;;;5.30;;
66667;SDS011;57205;51.438;-2.006;2023-04-24T07:03:36;10.05;;;5.93;;
66667;SDS011;57205;51.438;-2.006;2023-04-24T07:06:02;8.85;;;5.30;;
66667;SDS011;57205;51.438;-2.006;2023-04-24T07:08:28;9.82;;;5.68;;
66667;SDS011;57205;51.438;-2.006;2023-04-24T07:10:55;9.43;;;6.13;;
66667;SDS011;57205;51.438;-2.006;2023-04-24T07:13:21;7.47;;;4.95;;
66667;SDS011;57205;51.438;-2.006;2023-04-24T07:15:47;9.98;;;5.90;;
66667;SDS011;57205;51.438;-2.006;2023-04-24T07:18:15;10.68;;;5.45;;
66667;SDS011;57205;51.438;-2.006;2023-04-24T07:20:40;10.65;;;5.35;;
66667;SDS011;57205;51.438;-2.006;2023-04-24T07:23:06;10.85;;;6.03;;
66667;SDS011;57205;51.438;-2.006;2023-04-24T07:25:32;11.43;;;5.65;;
66667;SDS011;57205;51.438;-2.006;2023-04-24T07:27:58;12.68;;;5.32;;
66667;SDS011;57205;51.438;-2.006;2023-04-24T07:30:23;9.60;;;5.97;;
66667;SDS011;57205;51.438;-2.006;2023-04-24T07:32:49;7.78;;;4.85;;
66667;SDS011;57205;51.438;-2.006;2023-04-24T07:35:15;12.38;;;6.25;;
66667;SDS011;57205;51.438;-2.006;2023-04-24T07:37:40;11.20;;;6.65;;
66667;SDS011;57205;51.438;-2.006;2023-04-24T07:40:11;9.80;;;5.35;;
66667;SDS011;57205;51.438;-2.006;2023-04-24T07:42:38;9.80;;;4.80;;
66667;SDS011;57205;51.438;-2.006;2023-04-24T07:45:04;8.35;;;5.30;;
66667;SDS011;57205;51.438;-2.006;2023-04-24T07:47:31;8.32;;;5.18;;
66667;SDS011;57205;51.438;-2.006;2023-04-24T07:49:57;9.38;;;5.22;;
66667;SDS011;57205;51.438;-2.006;2023-04-24T07:52:23;12.40;;;6.72;;
66667;SDS011;57205;51.438;-2.006;2023-04-24T07:54:49;9.85;;;6.30;;
66667;SDS011;57205;51.438;-2.006;2023-04-24T07:57:15;6.97;;;4.70;;
66667;SDS011;57205;51.438;-2.006;2023-04-24T07:59:41;9.38;;;5.80;;
66667;SDS011;57205;51.438;-2.006;2023-04-24T08:02:06;10.20;;;5.32;;
66667;SDS011;57205;51.438;-2.006;2023-04-24T08:04:32;10.52;;;4.60;;
66667;SDS011;57205;51.438;-2.006;2023-04-24T08:06:58;7.72;;;5.18;;
66667;SDS011;57205;51.438;-2.006;2023-04-24T08:09:23;8.30;;;4.63;;
66667;SDS011;57205;51.438;-2.006;2023-04-24T08:11:49;13.38;;;5.80;;
66667;SDS011;57205;51.438;-2.006;2023-04-24T08:14:14;8.57;;;4.90;;
66667;SDS011;57205;51.438;-2.006;2023-04-24T08:16:40;9.65;;;5.07;;
66667;SDS011;57205;51.438;-2.006;2023-04-24T08:19:06;12.10;;;5.75;;
66667;SDS011;57205;51.438;-2.006;2023-04-24T08:21:32;8.23;;;5.50;;
66667;SDS011;57205;51.438;-2.006;2023-04-24T08:23:57;9.23;;;5.53;;
66667;SDS011;57205;51.438;-2.006;2023-04-24T08:26:23;12.23;;;5.88;;
66667;SDS011;57205;51.438;-2.006;2023-04-24T08:28:49;9.25;;;5.45;;
66667;SDS011;57205;51.438;-2.006;2023-04-24T08:31:15;11.52;;;5.47;;
66667;SDS011;57205;51.438;-2.006;2023-04-24T08:33:40;22.08;;;12.20;;
66667;SDS011;57205;51.438;-2.006;2023-04-24T08:36:06;14.73;;;7.07;;
66667;SDS011;57205;51.438;-2.006;2023-04-24T08:38:33;13.98;;;7.05;;
66667;SDS011;57205;51.438;-2.006;2023-04-24T08:40:59;12.52;;;6.38;;
66667;SDS011;57205;51.438;-2.006;2023-04-24T08:43:26;12.30;;;6.53;;
66667;SDS011;57205;51.438;-2.006;2023-04-24T08:45:53;10.35;;;6.35;;
66667;SDS011;57205;51.438;-2.006;2023-04-24T08:48:22;12.90;;;7.22;;
66667;SDS011;57205;51.438;-2.006;2023-04-24T08:50:48;11.00;;;5.88;;
66667;SDS011;57205;51.438;-2.006;2023-04-24T08:53:16;11.05;;;5.22;;
66667;SDS011;57205;51.438;-2.006;2023-04-24T08:55:43;10.90;;;5.82;;
66667;SDS011;57205;51.438;-2.006;2023-04-24T08:58:12;9.73;;;5.80;;
66667;SDS011;57205;51.438;-2.006;2023-04-24T09:00:39;11.70;;;5.00;;
66667;SDS011;57205;51.438;-2.006;2023-04-24T09:03:04;20.10;;;12.75;;
66667;SDS011;57205;51.438;-2.006;2023-04-24T09:05:31;12.48;;;5.93;;
66667;SDS011;57205;51.438;-2.006;2023-04-24T09:07:57;12.88;;;5.35;;
66667;SDS011;57205;51.438;-2.006;2023-04-24T09:10:25;8.77;;;5.57;;
66667;SDS011;57205;51.438;-2.006;2023-04-24T09:12:51;11.00;;;5.00;;
66667;SDS011;57205;51.438;-2.006;2023-04-24T09:15:17;12.75;;;5.32;;
66667;SDS011;57205;51.438;-2.006;2023-04-24T09:17:45;7.82;;;5.00;;
66667;SDS011;57205;51.438;-2.006;2023-04-24T09:20:11;8.80;;;4.85;;
66667;SDS011;57205;51.438;-2.006;2023-04-24T09:22:37;7.28;;;4.00;;
66667;SDS011;57205;51.438;-2.006;2023-04-24T09:25:06;7.07;;;4.22;;
66667;SDS011;57205;51.438;-2.006;2023-04-24T09:27:34;8.93;;;4.15;;
66667;SDS011;57205;51.438;-2.006;2023-04-24T09:30:00;6.13;;;4.25;;
66667;SDS011;57205;51.438;-2.006;2023-04-24T09:32:26;7.45;;;4.43;;
66667;SDS011;57205;51.438;-2.006;2023-04-24T09:35:06;6.82;;;4.30;;
66667;SDS011;57205;51.438;-2.006;2023-04-24T09:37:45;10.30;;;4.60;;
66667;SDS011;57205;51.438;-2.006;2023-04-24T09:40:18;9.07;;;4.78;;
66667;SDS011;57205;51.438;-2.006;2023-04-24T09:45:35;8.45;;;4.40;;
66667;SDS011;57205;51.438;-2.006;2023-04-24T09:48:02;7.40;;;4.53;;
66667;SDS011;57205;51.438;-2.006;2023-04-24T09:50:29;9.32;;;4.75;;
66667;SDS011;57205;51.438;-2.006;2023-04-24T09:53:01;7.30;;;4.38;;
66667;SDS011;57205;51.438;-2.006;2023-04-24T09:55:27;8.55;;;4.97;;
66667;SDS011;57205;51.438;-2.006;2023-04-24T09:57:59;7.00;;;5.03;;
66667;SDS011;57205;51.438;-2.006;2023-04-24T10:00:27;10.20;;;5.10;;
66667;SDS011;57205;51.438;-2.006;2023-04-24T10:02:58;9.23;;;4.90;;
66667;SDS011;57205;51.438;-2.006;2023-04-24T10:05:35;10.15;;;6.07;;
66667;SDS011;57205;51.438;-2.006;2023-04-24T10:08:02;16.83;;;9.18;;
66667;SDS011;57205;51.438;-2.006;2023-04-24T10:10:30;10.07;;;5.68;;
66667;SDS011;57205;51.438;-2.006;2023-04-24T10:12:56;9.98;;;5.47;;
66667;SDS011;57205;51.438;-2.006;2023-04-24T10:15:22;14.02;;;6.82;;
66667;SDS011;57205;51.438;-2.006;2023-04-24T10:17:48;9.38;;;4.97;;
66667;SDS011;57205;51.438;-2.006;2023-04-24T10:20:24;9.25;;;6.32;;
66667;SDS011;57205;51.438;-2.006;2023-04-24T10:22:52;9.18;;;6.18;;
66667;SDS011;57205;51.438;-2.006;2023-04-24T10:25:22;11.15;;;6.30;;
66667;SDS011;57205;51.438;-2.006;2023-04-24T10:27:50;11.73;;;6.30;;
66667;SDS011;57205;51.438;-2.006;2023-04-24T10:30:18;7.72;;;5.65;;
66667;SDS011;57205;51.438;-2.006;2023-04-24T10:32:45;13.55;;;6.50;;
66667;SDS011;57205;51.438;-2.006;2023-04-24T10:35:14;10.40;;;5.53;;
66667;SDS011;57205;51.438;-2.006;2023-04-24T10:37:46;10.93;;;6.72;;
66667;SDS011;57205;51.438;-2.006;2023-04-24T10:40:18;10.13;;;6.68;;
66667;SDS011;57205;51.438;-2.006;2023-04-24T10:42:51;8.27;;;5.28;;
66667;SDS011;57205;51.438;-2.006;2023-04-24T10:45:20;7.38;;;4.90;;
66667;SDS011;57205;51.438;-2.006;2023-04-24T10:47:57;8.50;;;5.45;;
66667;SDS011;57205;51.438;-2.006;2023-04-24T10:50:26;9.90;;;5.45;;
66667;SDS011;57205;51.438;-2.006;2023-04-24T10:52:53;7.65;;;4.80;;
66667;SDS011;57205;51.438;-2.006;2023-04-24T10:55:39;8.43;;;5.35;;
66667;SDS011;57205;51.438;-2.006;2023-04-24T10:58:09;9.02;;;5.32;;
66667;SDS011;57205;51.438;-2.006;2023-04-24T11:00:39;8.13;;;4.85;;
66667;SDS011;57205;51.438;-2.006;2023-04-24T11:03:24;8.98;;;4.22;;
66667;SDS011;57205;51.438;-2.006;2023-04-24T11:06:01;8.57;;;4.78;;
66667;SDS011;57205;51.438;-2.006;2023-04-24T11:11:13;9.50;;;4.55;;
66667;SDS011;57205;51.438;-2.006;2023-04-24T11:19:04;9.77;;;4.68;;
66667;SDS011;57205;51.438;-2.006;2023-04-24T11:34:47;10.90;;;6.63;;
66667;SDS011;57205;51.438;-2.006;2023-04-24T11:37:16;10.07;;;6.85;;
66667;SDS011;57205;51.438;-2.006;2023-04-24T11:39:42;11.27;;;7.10;;
66667;SDS011;57205;51.438;-2.006;2023-04-24T11:42:12;12.23;;;7.82;;
66667;SDS011;57205;51.438;-2.006;2023-04-24T11:44:41;11.32;;;7.15;;
66667;SDS011;57205;51.438;-2.006;2023-04-24T11:47:07;14.68;;;7.88;;
66667;SDS011;57205;51.438;-2.006;2023-04-24T11:49:33;14.23;;;8.68;;
66667;SDS011;57205;51.438;-2.006;2023-04-24T11:52:01;12.50;;;7.45;;
66667;SDS011;57205;51.438;-2.006;2023-04-24T11:54:27;13.77;;;8.48;;
66667;SDS011;57205;51.438;-2.006;2023-04-24T11:56:53;13.50;;;8.85;;
66667;SDS011;57205;51.438;-2.006;2023-04-24T11:59:18;12.98;;;8.65;;
66667;SDS011;57205;51.438;-2.006;2023-04-24T12:01:47;15.95;;;8.88;;
66667;SDS011;57205;51.438;-2.006;2023-04-24T12:04:13;13.15;;;7.70;;
66667;SDS011;57205;51.438;-2.006;2023-04-24T12:06:40;14.07;;;7.55;;
66667;SDS011;57205;51.438;-2.006;2023-04-24T12:09:23;13.50;;;7.47;;
66667;SDS011;57205;51.438;-2.006;2023-04-24T12:11:55;12.57;;;7.57;;
66667;SDS011;57205;51.438;-2.006;2023-04-24T12:14:22;12.95;;;7.78;;
66667;SDS011;57205;51.438;-2.006;2023-04-24T12:16:48;16.98;;;7.88;;
66667;SDS011;57205;51.438;-2.006;2023-04-24T12:19:21;23.17;;;7.88;;
66667;SDS011;57205;51.438;-2.006;2023-04-24T12:22:00;17.35;;;8.18;;
66667;SDS011;57205;51.438;-2.006;2023-04-24T12:24:27;19.30;;;7.80;;
66667;SDS011;57205;51.438;-2.006;2023-04-24T12:26:52;19.73;;;8.38;;
66667;SDS011;57205;51.438;-2.006;2023-04-24T12:29:21;20.67;;;7.97;;
66667;SDS011;57205;51.438;-2.006;2023-04-24T12:31:47;17.90;;;7.97;;
66667;SDS011;57205;51.438;-2.006;2023-04-24T12:34:22;17.48;;;7.45;;
66667;SDS011;57205;51.438;-2.006;2023-04-24T12:36:49;19.55;;;7.68;;
66667;SDS011;57205;51.438;-2.006;2023-04-24T12:39:18;14.50;;;7.38;;
66667;SDS011;57205;51.438;-2.006;2023-04-24T12:41:57;14.93;;;7.63;;
66667;SDS011;57205;51.438;-2.006;2023-04-24T12:44:35;14.25;;;7.50;;
66667;SDS011;57205;51.438;-2.006;2023-04-24T12:47:03;13.77;;;6.82;;
66667;SDS011;57205;51.438;-2.006;2023-04-24T12:49:30;14.00;;;5.97;;
66667;SDS011;57205;51.438;-2.006;2023-04-24T12:51:55;12.75;;;5.85;;
66667;SDS011;57205;51.438;-2.006;2023-04-24T12:54:21;11.32;;;6.22;;
66667;SDS011;57205;51.438;-2.006;2023-04-24T12:56:47;14.98;;;7.50;;
66667;SDS011;57205;51.438;-2.006;2023-04-24T12:59:12;12.15;;;7.80;;
66667;SDS011;57205;51.438;-2.006;2023-04-24T13:01:38;10.57;;;6.60;;
66667;SDS011;57205;51.438;-2.006;2023-04-24T13:04:04;12.73;;;6.45;;
66667;SDS011;57205;51.438;-2.006;2023-04-24T13:06:30;12.07;;;6.90;;
66667;SDS011;57205;51.438;-2.006;2023-04-24T13:08:56;13.35;;;7.38;;
66667;SDS011;57205;51.438;-2.006;2023-04-24T13:11:22;15.23;;;6.38;;
66667;SDS011;57205;51.438;-2.006;2023-04-24T13:13:48;13.75;;;7.15;;
66667;SDS011;57205;51.438;-2.006;2023-04-24T13:16:14;13.93;;;6.78;;
66667;SDS011;57205;51.438;-2.006;2023-04-24T13:18:40;13.73;;;6.85;;
66667;SDS011;57205;51.438;-2.006;2023-04-24T13:21:05;14.77;;;7.43;;
66667;SDS011;57205;51.438;-2.006;2023-04-24T13:23:31;15.38;;;7.80;;
66667;SDS011;57205;51.438;-2.006;2023-04-24T13:25:56;13.30;;;6.85;;
66667;SDS011;57205;51.438;-2.006;2023-04-24T13:28:22;12.75;;;6.50;;
66667;SDS011;57205;51.438;-2.006;2023-04-24T13:30:49;13.20;;;7.20;;
66667;SDS011;57205;51.438;-2.006;2023-04-24T13:33:15;14.23;;;6.75;;
66667;SDS011;57205;51.438;-2.006;2023-04-24T13:35:40;12.95;;;6.82;;
66667;SDS011;57205;51.438;-2.006;2023-04-24T13:38:06;15.85;;;7.47;;
66667;SDS011;57205;51.438;-2.006;2023-04-24T13:40:32;14.60;;;6.82;;
66667;SDS011;57205;51.438;-2.006;2023-04-24T13:42:58;13.50;;;7.03;;
66667;SDS011;57205;51.438;-2.006;2023-04-24T13:45:23;12.13;;;6.78;;
66667;SDS011;57205;51.438;-2.006;2023-04-24T13:47:48;14.43;;;7.57;;
66667;SDS011;57205;51.438;-2.006;2023-04-24T13:50:14;15.60;;;7.43;;
66667;SDS011;57205;51.438;-2.006;2023-04-24T13:52:40;12.70;;;6.63;;
66667;SDS011;57205;51.438;-2.006;2023-04-24T13:55:05;13.45;;;6.32;;
66667;SDS011;57205;51.438;-2.006;2023-04-24T13:57:31;12.82;;;6.10;;
66667;SDS011;57205;51.438;-2.006;2023-04-24T13:59:57;12.80;;;5.82;;
66667;SDS011;57205;51.438;-2.006;2023-04-24T14:02:26;13.63;;;6.63;;
66667;SDS011;57205;51.438;-2.006;2023-04-24T14:04:52;10.95;;;5.88;;
66667;SDS011;57205;51.438;-2.006;2023-04-24T14:07:17;11.00;;;6.32;;
66667;SDS011;57205;51.438;-2.006;2023-04-24T14:09:43;11.40;;;5.88;;
66667;SDS011;57205;51.438;-2.006;2023-04-24T14:12:08;9.60;;;6.00;;
66667;SDS011;57205;51.438;-2.006;2023-04-24T14:14:34;9.70;;;5.85;;
66667;SDS011;57205;51.438;-2.006;2023-04-24T14:17:00;9.38;;;5.95;;
66667;SDS011;57205;51.438;-2.006;2023-04-24T14:19:25;10.10;;;5.25;;
66667;SDS011;57205;51.438;-2.006;2023-04-24T14:21:50;8.43;;;4.40;;
66667;SDS011;57205;51.438;-2.006;2023-04-24T14:24:16;9.05;;;4.65;;
66667;SDS011;57205;51.438;-2.006;2023-04-24T14:26:41;8.02;;;5.20;;
66667;SDS011;57205;51.438;-2.006;2023-04-24T14:29:07;9.45;;;4.28;;
66667;SDS011;57205;51.438;-2.006;2023-04-24T14:31:32;10.20;;;5.03;;
66667;SDS011;57205;51.438;-2.006;2023-04-24T14:33:58;9.05;;;4.78;;
66667;SDS011;57205;51.438;-2.006;2023-04-24T14:36:23;10.50;;;4.47;;
66667;SDS011;57205;51.438;-2.006;2023-04-24T14:38:49;7.50;;;4.18;;
66667;SDS011;57205;51.438;-2.006;2023-04-24T14:41:14;9.40;;;4.60;;